createdAt,value
2018-10-16T00:00:58.088Z,42.29
2018-10-16T00:03:26.758Z,41.90
2018-10-16T00:05:55.043Z,41.74
2018-10-16T00:08:23.341Z,42.19
2018-10-16T00:10:51.700Z,42.13
2018-10-16T00:13:20.098Z,42.34
2018-10-16T00:15:48.386Z,42.03
2018-10-16T00:18:16.988Z,41.97
2018-10-16T00:20:45.330Z,42.69
2018-10-16T00:23:13.770Z,42.40
2018-10-16T00:25:46.036Z,42.07
2018-10-16T00:28:14.519Z,42.56
2018-10-16T00:30:42.877Z,43.18
2018-10-16T00:33:11.358Z,44.17
2018-10-16T00:35:39.646Z,43.08
2018-10-16T00:40:54.015Z,42.68
2018-10-16T00:43:22.403Z,42.55
2018-10-16T00:45:50.888Z,43.91
2018-10-16T00:48:19.256Z,44.10
2018-10-16T00:50:47.730Z,43.59
2018-10-16T00:53:16.633Z,43.65
2018-10-16T00:55:44.915Z,43.31
2018-10-16T00:58:13.461Z,43.66
2018-10-16T01:00:41.740Z,43.27
2018-10-16T01:03:10.185Z,44.01
2018-10-16T01:05:38.502Z,44.08
2018-10-16T01:08:06.846Z,44.49
2018-10-16T01:10:35.188Z,44.36
2018-10-16T01:13:04.057Z,43.53
2018-10-16T01:15:32.401Z,44.83
2018-10-16T01:18:00.861Z,44.83
2018-10-16T01:20:29.264Z,44.29
2018-10-16T01:22:57.663Z,44.12
2018-10-16T01:25:25.964Z,45.74
2018-10-16T01:27:54.250Z,44.71
2018-10-16T01:30:22.739Z,45.50
2018-10-16T01:32:51.075Z,45.42
2018-10-16T01:35:19.363Z,45.92
2018-10-16T01:37:47.664Z,46.68
2018-10-16T01:40:16.069Z,45.98
2018-10-16T01:42:44.394Z,45.93
2018-10-16T01:45:12.701Z,45.93
2018-10-16T01:47:41.028Z,45.59
2018-10-16T01:50:09.609Z,44.66
2018-10-16T01:52:38.045Z,44.51
2018-10-16T01:55:06.317Z,44.59
2018-10-16T01:57:34.742Z,44.97
2018-10-16T02:00:03.023Z,44.59
2018-10-16T02:02:31.649Z,44.88
2018-10-16T02:04:59.985Z,44.53
2018-10-16T02:07:28.291Z,45.53
2018-10-16T02:09:56.633Z,45.48
2018-10-16T02:12:25.092Z,45.17
2018-10-16T02:14:53.497Z,45.07
2018-10-16T02:17:21.767Z,44.90
2018-10-16T02:19:50.200Z,44.60
2018-10-16T02:22:18.608Z,44.58
2018-10-16T02:24:47.119Z,45.01
2018-10-16T02:27:15.419Z,44.71
2018-10-16T02:29:43.769Z,44.69
2018-10-16T02:32:12.068Z,44.94
2018-10-16T02:34:40.654Z,45.20
2018-10-16T02:37:09.655Z,45.50
2018-10-16T02:39:37.999Z,45.49
2018-10-16T02:42:06.870Z,46.39
2018-10-16T02:44:35.221Z,45.00
2018-10-16T02:47:11.472Z,45.74
2018-10-16T02:49:48.763Z,45.21
2018-10-16T02:52:17.107Z,45.94
2018-10-16T02:54:45.425Z,45.21
2018-10-16T02:57:13.767Z,45.84
2018-10-16T02:59:42.105Z,45.89
2018-10-16T03:02:10.517Z,45.40
2018-10-16T03:04:38.842Z,45.09
2018-10-16T03:07:07.269Z,45.67
2018-10-16T03:09:35.788Z,45.28
2018-10-16T03:12:04.608Z,46.16
2018-10-16T03:14:32.888Z,45.54
2018-10-16T03:17:01.184Z,46.20
2018-10-16T03:19:29.505Z,46.42
2018-10-16T03:21:57.859Z,46.22
2018-10-16T03:24:26.133Z,46.41
2018-10-16T03:26:54.433Z,45.77
2018-10-16T03:29:22.778Z,45.98
2018-10-16T03:31:51.233Z,46.14
2018-10-16T03:34:19.540Z,45.39
2018-10-16T03:36:47.968Z,45.71
2018-10-16T03:39:16.287Z,45.43
2018-10-16T03:41:44.568Z,45.98
2018-10-16T03:44:14.002Z,46.21
2018-10-16T03:46:42.315Z,46.65
2018-10-16T03:49:11.421Z,47.43
2018-10-16T03:51:40.682Z,45.97
2018-10-16T03:54:09.581Z,46.51
2018-10-16T03:56:38.052Z,47.20
2018-10-16T03:59:06.637Z,46.56
2018-10-16T04:01:35.009Z,46.45
2018-10-16T04:04:03.355Z,46.79
2018-10-16T04:06:32.451Z,46.43
2018-10-16T04:09:00.746Z,46.27
2018-10-16T04:11:29.376Z,47.17
2018-10-16T04:13:57.781Z,47.11
2018-10-16T04:16:26.173Z,47.68
2018-10-16T04:18:54.437Z,47.29
2018-10-16T04:21:22.752Z,47.38
2018-10-16T04:23:51.079Z,47.41
2018-10-16T04:26:19.428Z,47.71
2018-10-16T04:28:47.746Z,47.26
2018-10-16T04:31:16.151Z,47.65
2018-10-16T04:33:44.730Z,47.08
2018-10-16T04:36:13.458Z,46.96
2018-10-16T04:38:41.770Z,47.33
2018-10-16T04:41:10.085Z,47.42
2018-10-16T04:43:38.463Z,46.81
2018-10-16T04:46:06.679Z,47.15
2018-10-16T04:48:34.986Z,46.72
2018-10-16T04:51:03.672Z,46.63
2018-10-16T04:53:32.153Z,46.40
2018-10-16T04:56:00.444Z,47.17
2018-10-16T04:58:28.759Z,47.28
2018-10-16T05:00:57.117Z,47.68
2018-10-16T05:03:25.532Z,47.18
2018-10-16T05:05:53.996Z,46.37
2018-10-16T05:08:23.031Z,47.15
2018-10-16T05:10:51.391Z,46.90
2018-10-16T05:13:19.844Z,47.34
2018-10-16T05:15:48.283Z,46.95
2018-10-16T05:18:16.611Z,46.89
2018-10-16T05:20:45.230Z,46.86
2018-10-16T05:23:13.543Z,46.92
2018-10-16T05:25:41.832Z,47.01
2018-10-16T05:28:10.577Z,47.31
2018-10-16T05:30:38.868Z,46.88
2018-10-16T05:33:07.157Z,47.55
2018-10-16T05:35:35.609Z,47.63
2018-10-16T05:38:03.940Z,47.77
2018-10-16T05:40:32.225Z,46.82
2018-10-16T05:43:00.799Z,47.42
2018-10-16T05:45:31.350Z,48.23
2018-10-16T05:47:59.662Z,48.08
2018-10-16T05:50:27.973Z,48.64
2018-10-16T05:52:56.340Z,48.26
2018-10-16T05:55:24.716Z,48.56
2018-10-16T05:57:53.082Z,47.47
2018-10-16T06:00:35.200Z,46.88
2018-10-16T06:03:03.828Z,47.39
2018-10-16T06:05:32.313Z,47.29
2018-10-16T06:08:00.611Z,46.92
2018-10-16T06:10:28.932Z,47.33
2018-10-16T06:12:57.244Z,46.86
2018-10-16T06:15:25.655Z,46.87
2018-10-16T06:17:54.249Z,47.11
2018-10-16T06:20:22.596Z,47.07
2018-10-16T06:22:50.928Z,47.93
2018-10-16T06:25:19.243Z,47.70
2018-10-16T06:27:47.688Z,47.34
2018-10-16T06:30:16.294Z,47.33
2018-10-16T06:32:44.646Z,46.34
2018-10-16T06:35:13.076Z,47.13
2018-10-16T06:37:41.424Z,48.31
2018-10-16T06:40:10.493Z,47.36
2018-10-16T06:42:39.318Z,47.30
2018-10-16T06:45:09.381Z,46.51
2018-10-16T06:47:37.802Z,46.87
2018-10-16T06:50:07.761Z,46.18
2018-10-16T06:52:42.507Z,46.74
2018-10-16T06:55:10.851Z,46.93
2018-10-16T06:57:39.256Z,45.92
2018-10-16T07:00:08.122Z,46.22
2018-10-16T07:02:36.357Z,45.93
2018-10-16T07:05:05.850Z,46.22
2018-10-16T07:07:34.199Z,45.07
2018-10-16T07:10:02.589Z,45.00
2018-10-16T07:12:30.886Z,45.36
2018-10-16T07:14:59.208Z,45.04
2018-10-16T07:17:27.547Z,44.83
2018-10-16T07:19:55.844Z,44.27
2018-10-16T07:22:24.137Z,44.91
2018-10-16T07:24:52.495Z,44.20
2018-10-16T07:27:20.768Z,44.11
2018-10-16T07:29:49.305Z,43.24
2018-10-16T07:32:17.593Z,44.44
2018-10-16T07:34:45.992Z,44.01
2018-10-16T07:37:14.420Z,44.83
2018-10-16T07:39:42.861Z,43.35
2018-10-16T07:42:11.320Z,42.50
2018-10-16T07:44:39.650Z,42.30
2018-10-16T07:47:08.443Z,41.14
2018-10-16T07:49:36.956Z,40.93
2018-10-16T07:52:05.263Z,41.96
2018-10-16T07:54:33.701Z,41.09
2018-10-16T07:57:02.206Z,41.14
2018-10-16T07:59:30.499Z,40.25
2018-10-16T08:01:59.611Z,40.19
2018-10-16T08:04:27.883Z,40.25
2018-10-16T08:06:56.450Z,38.89
2018-10-16T08:09:25.054Z,38.79
2018-10-16T08:11:53.420Z,39.76
2018-10-16T08:14:22.083Z,38.04
2018-10-16T08:16:51.001Z,37.21
2018-10-16T08:19:19.292Z,37.80
2018-10-16T08:21:48.222Z,38.29
2018-10-16T08:24:16.535Z,37.59
2018-10-16T08:26:45.117Z,38.28
2018-10-16T08:29:13.365Z,37.66
2018-10-16T08:31:41.884Z,37.07
2018-10-16T08:34:10.377Z,36.54
2018-10-16T08:36:38.900Z,36.83
2018-10-16T08:39:16.976Z,36.04
2018-10-16T08:42:53.996Z,37.14
2018-10-16T08:45:33.966Z,36.08
2018-10-16T08:48:13.703Z,35.45
2018-10-16T08:50:53.169Z,35.13
2018-10-16T08:53:27.912Z,34.71
2018-10-16T08:55:56.352Z,34.75
2018-10-16T08:58:24.809Z,33.98
2018-10-16T09:00:53.138Z,33.79
2018-10-16T09:03:21.416Z,35.52
2018-10-16T09:05:49.704Z,34.56
2018-10-16T09:08:18.047Z,33.87
2018-10-16T09:10:46.609Z,33.61
2018-10-16T09:13:15.072Z,33.87
2018-10-16T09:15:43.315Z,34.40
2018-10-16T09:18:11.628Z,32.48
2018-10-16T09:20:40.034Z,31.11
2018-10-16T09:23:08.349Z,31.00
2018-10-16T09:25:36.628Z,31.60
2018-10-16T09:28:05.856Z,30.78
2018-10-16T09:30:34.152Z,29.93
2018-10-16T09:33:02.507Z,30.45
2018-10-16T09:35:30.822Z,29.81
2018-10-16T09:37:59.214Z,29.70
2018-10-16T09:40:27.484Z,30.24
2018-10-16T09:42:55.826Z,30.83
2018-10-16T09:45:24.172Z,29.36
2018-10-16T09:47:52.716Z,29.57
2018-10-16T09:50:21.018Z,29.43
2018-10-16T09:52:49.366Z,29.83
2018-10-16T09:55:17.605Z,28.73
2018-10-16T09:57:46.030Z,28.09
2018-10-16T10:00:19.660Z,27.77
2018-10-16T10:02:47.987Z,28.51
2018-10-16T10:05:16.409Z,26.49
2018-10-16T10:07:44.890Z,27.78
2018-10-16T10:10:13.243Z,26.97
2018-10-16T10:12:41.711Z,27.49
2018-10-16T10:15:10.135Z,26.90
2018-10-16T10:17:39.395Z,26.89
2018-10-16T10:20:08.370Z,26.27
2018-10-16T10:22:36.636Z,25.83
2018-10-16T10:25:05.682Z,26.82
2018-10-16T10:27:34.089Z,26.91
2018-10-16T10:30:02.993Z,26.71
2018-10-16T10:32:31.656Z,26.50
2018-10-16T10:35:00.451Z,26.83
2018-10-16T10:37:28.853Z,26.84
2018-10-16T10:39:57.243Z,25.63
2018-10-16T10:42:25.789Z,25.40
2018-10-16T10:44:54.127Z,26.14
2018-10-16T10:47:22.584Z,27.30
2018-10-16T10:49:51.168Z,28.54
2018-10-16T10:52:19.530Z,27.22
2018-10-16T10:54:48.205Z,26.40
2018-10-16T10:57:16.566Z,26.64
2018-10-16T10:59:44.873Z,26.57
2018-10-16T11:02:13.268Z,25.55
2018-10-16T11:04:41.593Z,25.37
2018-10-16T11:07:09.889Z,25.72
2018-10-16T11:09:38.200Z,25.00
2018-10-16T11:12:06.714Z,26.93
2018-10-16T11:14:34.985Z,25.47
2018-10-16T11:17:03.327Z,25.17
2018-10-16T11:19:31.684Z,24.26
2018-10-16T11:22:01.130Z,24.53
2018-10-16T11:24:31.015Z,24.53
2018-10-16T11:26:59.381Z,24.08
2018-10-16T11:29:27.759Z,23.83
2018-10-16T11:31:56.106Z,23.58
2018-10-16T11:34:24.374Z,24.15
2018-10-16T11:36:52.705Z,22.99
2018-10-16T11:39:21.232Z,21.60
2018-10-16T11:41:49.527Z,20.92
2018-10-16T11:44:17.956Z,22.33
2018-10-16T11:46:46.277Z,20.15
2018-10-16T11:49:14.744Z,20.16
2018-10-16T11:51:43.040Z,19.79
2018-10-16T11:54:11.354Z,19.62
2018-10-16T11:56:39.844Z,19.17
2018-10-16T11:59:08.234Z,18.84
2018-10-16T12:01:36.911Z,16.98
2018-10-16T12:04:08.053Z,16.86
2018-10-16T12:06:36.400Z,15.79
2018-10-16T12:09:07.758Z,15.63
2018-10-16T12:11:36.317Z,15.04
2018-10-16T12:14:05.454Z,15.09
2018-10-16T12:16:37.564Z,14.99
2018-10-16T12:19:10.937Z,13.51
2018-10-16T12:21:39.378Z,14.85
2018-10-16T12:24:07.778Z,13.99
2018-10-16T12:26:38.571Z,13.36
2018-10-16T12:29:07.117Z,11.96
2018-10-16T12:31:35.353Z,13.27
2018-10-16T12:34:03.746Z,10.51
2018-10-16T12:36:32.183Z,10.30
2018-10-16T12:39:00.706Z,9.23
2018-10-16T12:41:29.091Z,9.01
2018-10-16T12:43:57.423Z,10.12
2018-10-16T12:46:25.703Z,9.73
2018-10-16T12:48:53.979Z,9.31
2018-10-16T12:51:22.432Z,9.61
2018-10-16T12:53:51.747Z,9.25
2018-10-16T12:56:20.199Z,8.79
2018-10-16T12:58:48.624Z,7.92
2018-10-16T13:01:17.043Z,8.13
2018-10-16T13:03:45.554Z,7.89
2018-10-16T13:06:13.908Z,7.05
2018-10-16T13:08:42.310Z,7.62
2018-10-16T13:11:10.784Z,7.24
2018-10-16T13:13:39.221Z,7.65
2018-10-16T13:16:07.676Z,7.23
2018-10-16T13:18:36.229Z,6.52
2018-10-16T13:21:05.056Z,7.73
2018-10-16T13:23:33.559Z,8.52
2018-10-16T13:26:01.947Z,8.87
2018-10-16T13:28:30.782Z,10.20
2018-10-16T13:30:59.123Z,9.63
2018-10-16T13:33:27.387Z,10.17
2018-10-16T13:35:55.824Z,9.86
2018-10-16T13:38:24.084Z,10.31
2018-10-16T13:40:52.575Z,9.16
2018-10-16T13:43:20.849Z,9.71
2018-10-16T13:45:49.179Z,10.99
2018-10-16T13:48:17.432Z,10.08
2018-10-16T13:50:45.746Z,10.33
2018-10-16T13:53:14.010Z,9.65
2018-10-16T13:55:42.322Z,10.59
2018-10-16T13:58:10.693Z,9.10
2018-10-16T14:00:38.880Z,8.65
2018-10-16T14:03:07.165Z,8.96
2018-10-16T14:05:35.673Z,9.31
2018-10-16T14:08:04.023Z,10.21
2018-10-16T14:10:32.224Z,9.79
2018-10-16T14:13:00.527Z,10.22
2018-10-16T14:15:28.876Z,10.07
2018-10-16T14:17:57.311Z,9.14
2018-10-16T14:20:25.767Z,9.24
2018-10-16T14:22:54.125Z,9.41
2018-10-16T14:25:22.423Z,10.37
2018-10-16T14:27:50.842Z,10.10
2018-10-16T14:30:19.047Z,8.99
2018-10-16T14:32:47.317Z,9.16
2018-10-16T14:35:15.764Z,9.80
2018-10-16T14:37:44.036Z,9.92
2018-10-16T14:40:14.006Z,9.49
2018-10-16T14:42:42.503Z,9.84
2018-10-16T14:45:11.717Z,9.41
2018-10-16T14:47:40.167Z,10.60
2018-10-16T14:50:09.442Z,10.92
2018-10-16T14:52:37.718Z,9.75
2018-10-16T14:55:06.426Z,10.73
2018-10-16T14:57:35.075Z,11.01
2018-10-16T15:00:03.806Z,9.88
2018-10-16T15:02:32.303Z,10.94
2018-10-16T15:05:01.885Z,10.43
2018-10-16T15:07:30.301Z,11.07
2018-10-16T15:09:58.901Z,10.77
2018-10-16T15:12:33.201Z,11.16
2018-10-16T15:15:02.694Z,11.24
2018-10-16T15:17:32.140Z,11.36
2018-10-16T15:20:00.763Z,10.80
2018-10-16T15:22:29.311Z,11.32
2018-10-16T15:24:58.246Z,11.83
2018-10-16T15:27:26.521Z,13.17
2018-10-16T15:29:54.919Z,13.97
2018-10-16T15:32:23.406Z,14.86
2018-10-16T15:34:51.866Z,16.97
2018-10-16T15:37:20.181Z,17.84
2018-10-16T15:39:48.553Z,19.35
2018-10-16T15:42:16.953Z,19.09
2018-10-16T15:44:45.275Z,19.79
2018-10-16T15:47:13.720Z,20.65
2018-10-16T15:49:42.228Z,21.02
2018-10-16T15:52:10.694Z,21.84
2018-10-16T15:54:39.090Z,21.57
2018-10-16T15:57:07.463Z,21.62
2018-10-16T15:59:35.775Z,21.63
2018-10-16T16:02:04.152Z,21.84
2018-10-16T16:04:32.510Z,23.00
2018-10-16T16:07:00.900Z,22.60
2018-10-16T16:09:29.334Z,23.99
2018-10-16T16:11:57.640Z,24.78
2018-10-16T16:14:26.116Z,24.73
2018-10-16T16:16:54.588Z,24.57
2018-10-16T16:19:22.985Z,25.65
2018-10-16T16:21:51.576Z,25.06
2018-10-16T16:24:20.036Z,25.75
2018-10-16T16:26:48.688Z,25.57
2018-10-16T16:29:17.010Z,26.13
2018-10-16T16:31:45.341Z,26.32
2018-10-16T16:34:13.923Z,26.24
2018-10-16T16:36:42.319Z,25.92
2018-10-16T16:39:12.711Z,26.53
2018-10-16T16:41:41.116Z,26.60
2018-10-16T16:44:09.599Z,26.92
2018-10-16T16:46:38.162Z,27.40
2018-10-16T16:49:06.819Z,26.96
2018-10-16T16:51:35.125Z,27.23
2018-10-16T16:54:03.408Z,26.80
2018-10-16T16:56:31.806Z,26.79
2018-10-16T16:59:00.192Z,27.86
2018-10-16T17:01:28.668Z,27.10
2018-10-16T17:03:56.965Z,27.48
2018-10-16T17:06:26.026Z,27.91
2018-10-16T17:08:54.633Z,27.81
2018-10-16T17:11:23.006Z,28.72
2018-10-16T17:13:51.336Z,28.10
2018-10-16T17:16:19.923Z,28.06
2018-10-16T17:18:48.259Z,28.02
2018-10-16T17:21:16.847Z,28.65
2018-10-16T17:23:45.084Z,28.25
2018-10-16T17:26:13.835Z,29.20
2018-10-16T17:28:41.845Z,28.83
2018-10-16T17:31:10.332Z,29.52
2018-10-16T17:33:38.829Z,29.42
2018-10-16T17:36:07.219Z,29.83
2018-10-16T17:38:35.609Z,29.79
2018-10-16T17:41:04.005Z,30.48
2018-10-16T17:43:32.436Z,30.26
2018-10-16T17:46:00.851Z,30.17
2018-10-16T17:48:29.437Z,30.82
2018-10-16T17:50:57.916Z,30.98
2018-10-16T17:53:31.663Z,31.31
2018-10-16T17:56:00.199Z,31.30
2018-10-16T17:58:28.627Z,31.47
2018-10-16T18:00:57.094Z,31.96
2018-10-16T18:03:25.448Z,32.36
2018-10-16T18:05:54.056Z,31.88
2018-10-16T18:08:22.461Z,32.54
2018-10-16T18:10:50.773Z,32.17
2018-10-16T18:13:19.236Z,31.95
2018-10-16T18:15:47.533Z,31.96
2018-10-16T18:18:15.880Z,32.32
2018-10-16T18:20:44.159Z,32.54
2018-10-16T18:23:12.457Z,32.73
2018-10-16T18:25:40.808Z,33.55
2018-10-16T18:28:09.079Z,33.28
2018-10-16T18:30:37.614Z,33.08
2018-10-16T18:33:07.029Z,32.91
2018-10-16T18:35:35.418Z,32.77
2018-10-16T18:38:03.798Z,33.20
2018-10-16T18:40:32.215Z,32.95
2018-10-16T18:43:00.534Z,33.07
2018-10-16T18:45:28.863Z,33.04
2018-10-16T18:47:57.286Z,33.35
2018-10-16T18:50:25.538Z,33.35
2018-10-16T18:52:53.949Z,33.50
2018-10-16T18:55:22.206Z,33.77
2018-10-16T18:57:50.560Z,33.56
2018-10-16T19:00:19.643Z,33.96
2018-10-16T19:02:48.464Z,34.36
2018-10-16T19:05:16.921Z,34.91
2018-10-16T19:07:45.275Z,34.60
2018-10-16T19:10:13.674Z,34.68
2018-10-16T19:12:42.433Z,35.54
2018-10-16T19:15:13.276Z,35.12
2018-10-16T19:17:42.655Z,35.91
2018-10-16T19:20:12.709Z,36.02
2018-10-16T19:22:41.585Z,36.37
2018-10-16T19:25:10.847Z,36.60
2018-10-16T19:27:39.336Z,37.01
2018-10-16T19:30:11.895Z,37.01
2018-10-16T19:32:40.237Z,37.08
2018-10-16T19:35:09.691Z,37.34
2018-10-16T19:37:38.020Z,37.65
2018-10-16T19:40:06.660Z,37.25
2018-10-16T19:42:35.238Z,37.40
2018-10-16T19:45:04.493Z,37.54
2018-10-16T19:47:32.870Z,37.72
2018-10-16T19:50:03.454Z,38.00
2018-10-16T19:52:37.173Z,37.76
2018-10-16T19:55:05.928Z,38.08
2018-10-16T19:57:35.204Z,38.29
2018-10-16T20:00:05.189Z,38.17
2018-10-16T20:02:33.572Z,38.75
2018-10-16T20:05:02.995Z,38.83
2018-10-16T20:07:31.311Z,38.64
2018-10-16T20:09:59.569Z,39.22
2018-10-16T20:12:27.851Z,38.60
2018-10-16T20:14:56.220Z,38.61
2018-10-16T20:17:24.843Z,38.98
2018-10-16T20:19:53.084Z,38.37
2018-10-16T20:22:22.166Z,39.21
2018-10-16T20:24:51.425Z,38.97
2018-10-16T20:27:19.597Z,39.26
2018-10-16T20:29:47.956Z,39.37
2018-10-16T20:32:16.355Z,39.53
2018-10-16T20:34:44.684Z,39.84
2018-10-16T20:37:13.131Z,40.28
2018-10-16T20:39:41.359Z,40.23
2018-10-16T20:42:09.888Z,40.02
2018-10-16T20:44:38.772Z,40.52
2018-10-16T20:47:07.373Z,40.60
2018-10-16T20:49:36.428Z,41.23
2018-10-16T20:52:05.680Z,40.87
2018-10-16T20:54:34.007Z,41.44
2018-10-16T20:57:02.307Z,41.54
2018-10-16T20:59:30.588Z,40.89
2018-10-16T21:01:58.915Z,41.87
2018-10-16T21:04:27.374Z,41.75
2018-10-16T21:06:55.864Z,41.50
2018-10-16T21:09:23.941Z,42.43
2018-10-16T21:11:52.255Z,41.97
2018-10-16T21:14:20.618Z,42.30
2018-10-16T21:16:48.952Z,41.80
2018-10-16T21:19:17.395Z,41.49
2018-10-16T21:21:45.657Z,42.32
2018-10-16T21:24:13.963Z,42.30
2018-10-16T21:26:42.425Z,42.65
2018-10-16T21:29:10.985Z,42.79
2018-10-16T21:31:39.274Z,43.63
2018-10-16T21:35:36.828Z,43.17
2018-10-16T21:38:05.174Z,43.24
2018-10-16T21:40:33.633Z,43.47
2018-10-16T21:43:02.036Z,43.25
2018-10-16T21:45:30.331Z,43.98
2018-10-16T21:47:58.618Z,43.79
2018-10-16T21:50:26.889Z,44.37
2018-10-16T21:52:55.244Z,44.46
2018-10-16T21:55:23.557Z,44.89
2018-10-16T21:57:51.853Z,44.16
2018-10-16T22:00:25.504Z,44.43
2018-10-16T22:02:53.884Z,43.86
2018-10-16T22:05:23.611Z,43.63
2018-10-16T22:07:53.659Z,43.44
2018-10-16T22:10:22.533Z,43.79
2018-10-16T22:12:51.205Z,43.93
2018-10-16T22:15:20.464Z,44.76
2018-10-16T22:17:49.026Z,44.53
2018-10-16T22:20:17.381Z,44.76
2018-10-16T22:22:46.629Z,44.74
2018-10-16T22:25:15.541Z,44.21
2018-10-16T22:27:43.874Z,44.98
2018-10-16T22:30:12.187Z,45.46
2018-10-16T22:32:40.586Z,45.06
2018-10-16T22:35:10.251Z,45.58
2018-10-16T22:37:38.511Z,45.45
2018-10-16T22:40:08.111Z,44.83
2018-10-16T22:42:36.632Z,45.08
2018-10-16T22:45:05.893Z,46.11
2018-10-16T22:47:34.229Z,46.07
2018-10-16T22:50:02.602Z,45.73
2018-10-16T22:52:31.606Z,45.60
2018-10-16T22:54:59.938Z,45.43
2018-10-16T22:57:28.289Z,46.30
2018-10-16T22:59:56.628Z,45.39
2018-10-16T23:02:24.884Z,45.11
2018-10-16T23:04:53.375Z,45.26
2018-10-16T23:07:21.713Z,45.57
2018-10-16T23:09:49.975Z,45.34
2018-10-16T23:12:18.435Z,45.83
2018-10-16T23:14:46.753Z,45.38
2018-10-16T23:17:15.212Z,45.20
2018-10-16T23:19:43.478Z,45.39
2018-10-16T23:22:11.807Z,45.79
2018-10-16T23:24:40.093Z,45.42
2018-10-16T23:27:08.380Z,45.79
2018-10-16T23:29:37.274Z,46.85
2018-10-16T23:32:06.554Z,45.95
2018-10-16T23:34:34.835Z,46.91
2018-10-16T23:37:03.460Z,46.46
2018-10-16T23:39:31.688Z,46.49
2018-10-16T23:41:59.945Z,47.38
2018-10-16T23:44:28.378Z,46.11
2018-10-16T23:46:56.762Z,45.67
2018-10-16T23:49:25.013Z,45.53
2018-10-16T23:51:53.755Z,46.68
2018-10-16T23:54:22.086Z,45.73
2018-10-16T23:56:50.409Z,45.53
2018-10-16T23:59:18.749Z,45.84
